createdAt,value
2018-06-22T00:00:31.044Z,2.00
2018-06-22T00:03:00.628Z,1.53
2018-06-22T00:05:30.100Z,1.83
2018-06-22T00:07:59.539Z,1.37
2018-06-22T00:10:28.908Z,2.10
2018-06-22T00:12:58.488Z,1.97
2018-06-22T00:15:28.034Z,1.70
2018-06-22T00:17:57.349Z,1.97
2018-06-22T00:20:26.724Z,1.60
2018-06-22T00:22:56.027Z,1.70
2018-06-22T00:25:25.426Z,1.93
2018-06-22T00:27:54.808Z,1.40
2018-06-22T00:30:24.428Z,1.80
2018-06-22T00:32:53.854Z,1.87
2018-06-22T00:35:23.266Z,1.80
2018-06-22T00:37:52.531Z,2.17
2018-06-22T00:40:21.913Z,1.63
2018-06-22T00:42:51.480Z,1.60
2018-06-22T00:45:20.757Z,1.70
2018-06-22T00:47:50.178Z,1.70
2018-06-22T00:50:19.556Z,1.80
2018-06-22T00:52:49.019Z,1.60
2018-06-22T00:55:18.629Z,1.80
2018-06-22T00:57:48.150Z,1.50
2018-06-22T01:00:17.442Z,1.73
2018-06-22T01:02:46.678Z,2.07
2018-06-22T01:05:16.052Z,1.70
2018-06-22T01:07:45.301Z,1.60
2018-06-22T01:10:14.542Z,1.57
2018-06-22T01:12:43.788Z,1.67
2018-06-22T01:15:13.129Z,1.80
2018-06-22T01:17:42.325Z,1.57
2018-06-22T01:20:11.706Z,1.60
2018-06-22T01:22:41.139Z,1.80
2018-06-22T01:25:10.515Z,1.70
2018-06-22T01:27:39.911Z,1.63
2018-06-22T01:30:09.319Z,1.57
2018-06-22T01:32:38.683Z,1.93
2018-06-22T01:35:07.999Z,1.63
2018-06-22T01:37:37.375Z,1.30
2018-06-22T01:40:07.003Z,1.70
2018-06-22T01:42:36.381Z,1.40
2018-06-22T01:45:05.953Z,1.57
2018-06-22T01:47:35.359Z,1.50
2018-06-22T01:50:04.894Z,1.27
2018-06-22T01:52:34.240Z,1.53
2018-06-22T01:55:03.696Z,1.70
2018-06-22T01:57:33.032Z,1.77
2018-06-22T02:00:02.381Z,1.70
2018-06-22T02:02:31.753Z,2.10
2018-06-22T02:05:01.126Z,1.63
2018-06-22T02:07:30.466Z,2.03
2018-06-22T02:09:59.778Z,1.47
2018-06-22T02:12:29.256Z,1.50
2018-06-22T02:14:58.518Z,1.80
2018-06-22T02:17:27.880Z,1.90
2018-06-22T02:19:57.312Z,1.70
2018-06-22T02:22:26.692Z,1.77
2018-06-22T02:24:56.009Z,1.53
2018-06-22T02:27:25.340Z,1.63
2018-06-22T02:29:54.783Z,1.53
2018-06-22T02:32:24.187Z,1.70
2018-06-22T02:34:53.515Z,1.77
2018-06-22T02:37:22.880Z,1.70
2018-06-22T02:39:52.128Z,1.70
2018-06-22T02:42:21.462Z,2.67
2018-06-22T02:44:50.897Z,1.73
2018-06-22T02:47:20.271Z,1.87
2018-06-22T02:49:49.684Z,1.60
2018-06-22T02:52:19.069Z,1.60
2018-06-22T02:54:48.484Z,1.60
2018-06-22T02:57:17.844Z,1.60
2018-06-22T02:59:47.153Z,1.70
2018-06-22T03:02:16.440Z,1.40
2018-06-22T03:04:45.844Z,1.70
2018-06-22T03:07:15.285Z,1.50
2018-06-22T03:09:44.708Z,1.30
2018-06-22T03:12:14.005Z,1.60
2018-06-22T03:14:43.347Z,1.80
2018-06-22T03:17:12.739Z,1.57
2018-06-22T03:19:42.230Z,1.37
2018-06-22T03:22:11.645Z,1.70
2018-06-22T03:24:42.678Z,1.40
2018-06-22T03:27:12.628Z,1.73
2018-06-22T03:29:49.530Z,1.90
2018-06-22T03:32:20.527Z,1.70
2018-06-22T03:34:50.043Z,1.80
2018-06-22T03:37:19.527Z,1.97
2018-06-22T03:39:48.839Z,1.40
2018-06-22T03:42:18.159Z,1.80
2018-06-22T03:44:47.567Z,1.37
2018-06-22T03:47:17.201Z,1.57
2018-06-22T03:49:46.678Z,1.50
2018-06-22T03:52:15.936Z,1.80
2018-06-22T03:54:47.154Z,1.53
2018-06-22T03:57:16.794Z,1.30
2018-06-22T03:59:46.205Z,1.23
2018-06-22T04:02:15.685Z,1.77
2018-06-22T04:04:45.238Z,1.40
2018-06-22T04:07:16.194Z,1.57
2018-06-22T04:09:45.571Z,1.50
2018-06-22T04:12:14.907Z,1.97
2018-06-22T04:14:44.226Z,1.83
2018-06-22T04:17:13.471Z,1.20
2018-06-22T04:19:42.797Z,1.57
2018-06-22T04:22:12.277Z,1.50
2018-06-22T04:24:41.944Z,1.30
2018-06-22T04:27:11.382Z,1.80
2018-06-22T04:29:41.037Z,1.60
2018-06-22T04:32:10.457Z,1.50
2018-06-22T04:34:39.872Z,1.53
2018-06-22T04:37:09.477Z,1.50
2018-06-22T04:39:38.948Z,1.90
2018-06-22T04:42:11.157Z,1.30
2018-06-22T04:44:40.985Z,1.50
2018-06-22T04:47:10.389Z,1.47
2018-06-22T04:49:39.929Z,1.33
2018-06-22T04:52:09.251Z,1.73
2018-06-22T04:54:38.567Z,1.70
2018-06-22T04:57:08.030Z,1.87
2018-06-22T04:59:37.456Z,1.70
2018-06-22T05:02:06.794Z,1.50
2018-06-22T05:04:36.296Z,1.67
2018-06-22T05:07:06.327Z,1.57
2018-06-22T05:09:35.927Z,1.90
2018-06-22T05:12:05.515Z,1.90
2018-06-22T05:14:35.338Z,1.90
2018-06-22T05:17:04.898Z,1.67
2018-06-22T05:19:34.529Z,2.40
2018-06-22T05:22:04.071Z,2.20
2018-06-22T05:24:33.761Z,1.80
2018-06-22T05:27:03.464Z,1.90
2018-06-22T05:29:33.021Z,2.00
2018-06-22T05:32:02.637Z,1.87
2018-06-22T05:34:32.005Z,2.03
2018-06-22T05:37:01.379Z,1.77
2018-06-22T05:39:31.005Z,1.90
2018-06-22T05:42:00.391Z,2.43
2018-06-22T05:44:29.886Z,2.20
2018-06-22T05:46:59.309Z,2.10
2018-06-22T05:49:28.924Z,2.40
2018-06-22T05:51:58.408Z,2.73
2018-06-22T05:54:28.076Z,2.23
2018-06-22T05:56:57.484Z,2.70
2018-06-22T05:59:26.900Z,2.43
2018-06-22T06:01:56.284Z,2.17
2018-06-22T06:04:25.796Z,2.00
2018-06-22T06:06:55.183Z,2.00
2018-06-22T06:09:24.588Z,2.00
2018-06-22T06:11:54.060Z,2.57
2018-06-22T06:14:23.460Z,1.97
2018-06-22T06:16:53.001Z,1.30
2018-06-22T06:19:22.540Z,1.50
2018-06-22T06:21:51.849Z,1.10
2018-06-22T06:24:21.361Z,1.00
2018-06-22T06:26:50.793Z,1.20
2018-06-22T06:29:20.147Z,1.30
2018-06-22T06:31:49.478Z,1.30
2018-06-22T06:34:18.823Z,1.70
2018-06-22T06:36:48.104Z,1.30
2018-06-22T06:39:17.433Z,1.03
2018-06-22T06:41:46.854Z,1.30
2018-06-22T06:44:16.266Z,1.30
2018-06-22T06:46:45.716Z,1.57
2018-06-22T06:49:15.567Z,1.23
2018-06-22T06:51:45.041Z,1.50
2018-06-22T06:54:14.379Z,1.17
2018-06-22T06:56:43.704Z,1.53
2018-06-22T06:59:13.193Z,1.40
2018-06-22T07:01:42.702Z,1.47
2018-06-22T07:04:12.062Z,1.80
2018-06-22T07:06:41.391Z,1.60
2018-06-22T07:09:10.853Z,1.80
2018-06-22T07:11:40.161Z,1.67
2018-06-22T07:14:09.443Z,1.40
2018-06-22T07:16:39.037Z,1.70
2018-06-22T07:19:09.356Z,1.77
2018-06-22T07:21:38.703Z,1.90
2018-06-22T07:24:08.160Z,1.90
2018-06-22T07:26:37.569Z,1.70
2018-06-22T07:29:07.109Z,1.63
2018-06-22T07:31:36.479Z,1.50
2018-06-22T07:34:06.055Z,2.23
2018-06-22T07:36:35.410Z,2.03
2018-06-22T07:39:08.013Z,2.00
2018-06-22T07:41:37.374Z,1.83
2018-06-22T07:44:06.767Z,2.07
2018-06-22T07:46:36.237Z,1.67
2018-06-22T07:49:05.664Z,1.57
2018-06-22T07:51:35.908Z,2.23
2018-06-22T07:54:05.317Z,2.20
2018-06-22T07:56:34.865Z,2.07
2018-06-22T07:59:04.188Z,1.73
2018-06-22T08:01:33.443Z,2.00
2018-06-22T08:04:02.884Z,1.93
2018-06-22T08:06:32.422Z,2.00
2018-06-22T08:09:01.819Z,2.20
2018-06-22T08:11:31.292Z,2.27
2018-06-22T08:14:00.563Z,2.53
2018-06-22T08:16:29.962Z,2.60
2018-06-22T08:18:59.444Z,2.30
2018-06-22T08:21:28.788Z,2.47
2018-06-22T08:23:58.207Z,2.40
2018-06-22T08:26:27.895Z,2.33
2018-06-22T08:28:57.392Z,2.40
2018-06-22T08:31:26.968Z,2.60
2018-06-22T08:33:56.496Z,2.40
2018-06-22T08:36:25.859Z,2.30
2018-06-22T08:38:55.234Z,2.70
2018-06-22T08:41:24.643Z,2.60
2018-06-22T08:43:54.080Z,2.43
2018-06-22T08:46:23.489Z,2.67
2018-06-22T08:48:52.822Z,2.30
2018-06-22T08:51:22.154Z,2.33
2018-06-22T08:53:51.461Z,2.90
2018-06-22T08:56:20.785Z,2.70
2018-06-22T08:58:50.118Z,2.50
2018-06-22T09:01:19.672Z,2.57
2018-06-22T09:03:49.066Z,2.03
2018-06-22T09:06:18.536Z,2.30
2018-06-22T09:08:47.857Z,2.73
2018-06-22T09:11:17.386Z,2.53
2018-06-22T09:13:46.705Z,2.97
2018-06-22T09:16:16.129Z,2.60
2018-06-22T09:18:45.487Z,3.00
2018-06-22T09:21:14.905Z,2.50
2018-06-22T09:23:44.405Z,2.40
2018-06-22T09:26:13.810Z,2.63
2018-06-22T09:28:43.219Z,2.73
2018-06-22T09:31:12.649Z,2.50
2018-06-22T09:33:41.982Z,3.07
2018-06-22T09:36:11.640Z,3.17
2018-06-22T09:38:41.052Z,2.80
2018-06-22T09:41:10.978Z,2.40
2018-06-22T09:43:41.202Z,2.67
2018-06-22T09:46:10.911Z,2.63
2018-06-22T09:48:40.730Z,2.80
2018-06-22T09:51:10.324Z,3.27
2018-06-22T09:53:39.930Z,2.43
2018-06-22T09:56:09.560Z,3.00
2018-06-22T09:58:39.008Z,2.80
2018-06-22T10:01:08.698Z,2.53
2018-06-22T10:03:38.188Z,3.10
2018-06-22T10:06:07.794Z,2.77
2018-06-22T10:08:37.233Z,2.90
2018-06-22T10:11:06.926Z,2.80
2018-06-22T10:13:36.443Z,3.63
2018-06-22T10:16:06.217Z,2.87
2018-06-22T10:18:35.729Z,2.67
2018-06-22T10:21:05.398Z,3.07
2018-06-22T10:23:34.916Z,2.90
2018-06-22T10:26:04.609Z,2.80
2018-06-22T10:28:34.169Z,3.37
2018-06-22T10:31:03.593Z,3.47
2018-06-22T10:33:33.149Z,3.20
2018-06-22T10:36:02.734Z,2.70
2018-06-22T10:38:32.209Z,2.83
2018-06-22T10:41:01.800Z,3.40
2018-06-22T10:43:31.280Z,3.10
2018-06-22T10:46:00.953Z,2.87
2018-06-22T10:48:30.429Z,2.67
2018-06-22T10:51:00.057Z,2.90
2018-06-22T10:53:29.606Z,2.97
2018-06-22T10:55:59.300Z,2.53
2018-06-22T10:58:28.773Z,2.67
2018-06-22T11:00:58.371Z,2.73
2018-06-22T11:03:27.985Z,2.90
2018-06-22T11:05:57.423Z,3.17
2018-06-22T11:08:26.808Z,3.00
2018-06-22T11:10:56.249Z,3.50
2018-06-22T11:13:25.763Z,3.67
2018-06-22T11:15:55.383Z,3.10
2018-06-22T11:18:24.765Z,3.87
2018-06-22T11:20:54.091Z,3.43
2018-06-22T11:23:23.497Z,3.73
2018-06-22T11:25:52.865Z,3.40
2018-06-22T11:28:22.587Z,3.07
2018-06-22T11:30:52.153Z,3.20
2018-06-22T11:33:21.513Z,3.50
2018-06-22T11:35:50.922Z,3.47
2018-06-22T11:38:20.346Z,3.60
2018-06-22T11:40:49.872Z,3.43
2018-06-22T11:43:19.256Z,4.30
2018-06-22T11:45:48.665Z,3.27
2018-06-22T11:48:18.001Z,3.67
2018-06-22T11:50:47.417Z,3.70
2018-06-22T11:53:16.787Z,3.17
2018-06-22T11:55:46.110Z,3.80
2018-06-22T11:58:15.469Z,3.17
2018-06-22T12:00:44.902Z,3.00
2018-06-22T12:03:14.458Z,3.40
2018-06-22T12:05:43.838Z,3.20
2018-06-22T12:08:13.150Z,3.33
2018-06-22T12:10:42.576Z,3.50
2018-06-22T12:13:11.822Z,3.13
2018-06-22T12:15:41.243Z,3.17
2018-06-22T12:18:10.531Z,3.10
2018-06-22T12:20:39.865Z,3.10
2018-06-22T12:23:09.349Z,3.20
2018-06-22T12:25:38.800Z,3.00
2018-06-22T12:28:08.215Z,3.40
2018-06-22T12:30:37.769Z,3.40
2018-06-22T12:33:07.107Z,2.70
2018-06-22T12:35:36.443Z,3.77
2018-06-22T12:38:05.878Z,3.27
2018-06-22T12:40:35.375Z,3.23
2018-06-22T12:43:04.899Z,3.87
2018-06-22T12:45:34.269Z,3.37
2018-06-22T12:48:03.765Z,4.00
2018-06-22T12:50:33.233Z,3.40
2018-06-22T12:53:02.823Z,3.10
2018-06-22T12:55:32.331Z,3.67
2018-06-22T12:58:01.881Z,4.10
2018-06-22T13:00:31.310Z,3.20
2018-06-22T13:03:00.971Z,3.03
2018-06-22T13:05:30.487Z,3.63
2018-06-22T13:07:59.838Z,3.50
2018-06-22T13:10:29.211Z,3.60
2018-06-22T13:12:58.602Z,3.17
2018-06-22T13:15:28.067Z,3.13
2018-06-22T13:17:57.493Z,3.40
2018-06-22T13:20:26.989Z,3.57
2018-06-22T13:22:56.605Z,3.97
2018-06-22T13:25:25.932Z,3.57
2018-06-22T13:27:55.481Z,3.33
2018-06-22T13:30:25.080Z,3.20
2018-06-22T13:32:54.523Z,3.50
2018-06-22T13:35:23.932Z,3.17
2018-06-22T13:37:53.328Z,3.30
2018-06-22T13:40:22.714Z,3.43
2018-06-22T13:42:52.133Z,3.63
2018-06-22T13:45:21.647Z,3.23
2018-06-22T13:47:51.049Z,4.37
2018-06-22T13:50:20.399Z,3.43
2018-06-22T13:52:49.739Z,3.60
2018-06-22T13:55:19.208Z,3.03
2018-06-22T13:57:48.646Z,3.57
2018-06-22T14:00:17.920Z,2.93
2018-06-22T14:02:47.191Z,3.63
2018-06-22T14:05:21.830Z,3.80
2018-06-22T14:07:53.100Z,3.93
2018-06-22T14:10:22.481Z,3.13
2018-06-22T14:12:51.878Z,3.03
2018-06-22T14:15:21.522Z,3.40
2018-06-22T14:17:51.004Z,3.27
2018-06-22T14:20:21.432Z,3.47
2018-06-22T14:22:50.765Z,3.43
2018-06-22T14:25:20.166Z,3.67
2018-06-22T14:27:49.571Z,3.20
2018-06-22T14:30:18.975Z,3.20
2018-06-22T14:32:48.375Z,4.03
2018-06-22T14:35:17.777Z,3.67
2018-06-22T14:37:55.300Z,3.30
2018-06-22T14:40:24.667Z,3.37
2018-06-22T14:42:54.023Z,2.90
2018-06-22T14:45:23.383Z,4.37
2018-06-22T14:47:52.911Z,3.77
2018-06-22T14:50:22.240Z,4.13
2018-06-22T14:52:51.720Z,3.20
2018-06-22T14:55:26.334Z,3.97
2018-06-22T14:58:01.026Z,3.50
2018-06-22T15:00:35.613Z,3.77
2018-06-22T15:03:10.129Z,3.80
2018-06-22T15:05:44.666Z,3.87
2018-06-22T15:08:18.689Z,3.40
2018-06-22T15:10:48.307Z,3.37
2018-06-22T15:13:17.767Z,3.87
2018-06-22T15:15:47.293Z,3.90
2018-06-22T15:18:16.658Z,3.80
2018-06-22T15:20:46.233Z,4.27
2018-06-22T15:23:15.744Z,3.33
2018-06-22T15:25:45.216Z,3.33
2018-06-22T15:28:14.736Z,4.03
2018-06-22T15:30:44.265Z,2.90
2018-06-22T15:33:18.936Z,3.37
2018-06-22T15:35:53.606Z,3.80
2018-06-22T15:38:28.352Z,3.70
2018-06-22T15:41:03.126Z,3.30
2018-06-22T15:43:37.771Z,3.27
2018-06-22T15:46:12.396Z,3.97
2018-06-22T15:48:48.070Z,3.23
2018-06-22T15:51:22.953Z,3.00
2018-06-22T15:53:57.609Z,3.67
2018-06-22T15:56:27.385Z,3.37
2018-06-22T15:58:57.100Z,3.63
2018-06-22T16:01:26.490Z,3.47
2018-06-22T16:03:59.300Z,3.77
2018-06-22T16:06:29.374Z,3.80
2018-06-22T16:08:58.858Z,3.70
2018-06-22T16:11:29.412Z,4.00
2018-06-22T16:14:04.106Z,3.60
2018-06-22T16:16:38.708Z,4.00
2018-06-22T16:19:13.401Z,3.47
2018-06-22T16:21:48.056Z,3.73
2018-06-22T16:24:22.761Z,3.73
2018-06-22T16:26:57.511Z,3.93
2018-06-22T16:29:27.133Z,3.40
2018-06-22T16:31:56.777Z,4.30
2018-06-22T16:34:26.299Z,4.17
2018-06-22T16:36:55.808Z,4.73
2018-06-22T16:39:25.492Z,4.47
2018-06-22T16:41:55.173Z,4.03
2018-06-22T16:44:24.627Z,3.47
2018-06-22T16:46:54.213Z,3.73
2018-06-22T16:49:23.693Z,4.13
2018-06-22T16:51:53.175Z,3.73
2018-06-22T16:54:22.756Z,3.67
2018-06-22T16:56:52.425Z,4.30
2018-06-22T16:59:21.793Z,3.57
2018-06-22T17:01:51.285Z,3.83
2018-06-22T17:04:20.957Z,3.13
2018-06-22T17:06:55.595Z,3.63
2018-06-22T17:09:30.193Z,4.63
2018-06-22T17:12:05.003Z,4.10
2018-06-22T17:14:39.764Z,3.87
2018-06-22T17:17:14.374Z,4.53
2018-06-22T17:19:43.865Z,3.23
2018-06-22T17:22:13.228Z,3.60
2018-06-22T17:24:42.590Z,4.03
2018-06-22T17:27:12.015Z,4.63
2018-06-22T17:29:41.568Z,3.93
2018-06-22T17:32:11.034Z,4.47
2018-06-22T17:34:40.539Z,6.27
2018-06-22T17:37:09.998Z,4.37
2018-06-22T17:39:39.510Z,3.93
2018-06-22T17:42:09.208Z,3.87
2018-06-22T17:44:38.826Z,3.80
2018-06-22T17:47:08.236Z,4.43
2018-06-22T17:49:46.778Z,3.97
2018-06-22T17:52:16.210Z,3.57
2018-06-22T17:54:45.741Z,3.40
2018-06-22T17:57:15.224Z,3.77
2018-06-22T17:59:49.797Z,3.80
2018-06-22T18:02:24.458Z,3.50
2018-06-22T18:04:59.127Z,3.53
2018-06-22T18:07:33.655Z,3.83
2018-06-22T18:10:08.461Z,3.50
2018-06-22T18:12:43.193Z,4.00
2018-06-22T18:15:12.574Z,3.73
2018-06-22T18:17:49.627Z,3.80
2018-06-22T18:20:27.156Z,3.97
2018-06-22T18:23:04.938Z,4.03
2018-06-22T18:25:42.899Z,4.20
2018-06-22T18:28:21.385Z,3.70
2018-06-22T18:30:59.404Z,3.40
2018-06-22T18:33:38.056Z,3.87
2018-06-22T18:36:19.207Z,3.70
2018-06-22T18:38:50.226Z,3.43
2018-06-22T18:41:20.018Z,3.70
2018-06-22T18:43:54.579Z,3.87
2018-06-22T18:46:24.105Z,3.53
2018-06-22T18:48:53.730Z,3.47
2018-06-22T18:51:23.283Z,3.47
2018-06-22T18:53:58.005Z,4.33
2018-06-22T18:56:32.898Z,3.60
2018-06-22T18:59:07.655Z,3.67
2018-06-22T19:03:45.366Z,3.93
2018-06-22T19:06:14.876Z,3.37
2018-06-22T19:08:46.814Z,3.67
2018-06-22T19:11:16.282Z,4.13
2018-06-22T19:13:45.742Z,3.97
2018-06-22T19:16:15.216Z,3.50
2018-06-22T19:18:44.615Z,4.10
2018-06-22T19:21:14.109Z,4.27
2018-06-22T19:23:43.696Z,4.13
2018-06-22T19:26:13.401Z,3.90
2018-06-22T19:28:42.939Z,4.00
2018-06-22T19:31:12.462Z,3.80
2018-06-22T19:33:41.971Z,3.43
2018-06-22T19:36:11.542Z,3.47
2018-06-22T19:38:41.294Z,4.20
2018-06-22T19:41:10.734Z,4.10
2018-06-22T19:43:45.204Z,3.73
2018-06-22T19:46:19.920Z,3.80
2018-06-22T19:48:54.567Z,4.03
2018-06-22T19:53:30.394Z,3.90
2018-06-22T19:55:59.934Z,4.47
2018-06-22T19:58:29.650Z,4.20
2018-06-22T20:00:59.265Z,3.60
2018-06-22T20:03:28.859Z,3.83
2018-06-22T20:05:58.350Z,3.57
2018-06-22T20:08:27.770Z,4.17
2018-06-22T20:10:57.289Z,4.00
2018-06-22T20:13:26.933Z,3.43
2018-06-22T20:15:56.525Z,4.00
2018-06-22T20:18:26.108Z,3.40
2018-06-22T20:20:55.591Z,3.77
2018-06-22T20:23:24.984Z,4.43
2018-06-22T20:25:54.678Z,4.17
2018-06-22T20:28:24.172Z,4.13
2018-06-22T20:30:53.939Z,4.07
2018-06-22T20:33:23.260Z,3.60
2018-06-22T20:35:57.753Z,4.43
2018-06-22T20:38:32.355Z,4.37
2018-06-22T20:41:06.865Z,3.90
2018-06-22T20:43:41.331Z,4.30
2018-06-22T20:46:10.877Z,4.27
2018-06-22T20:48:45.579Z,3.93
2018-06-22T20:51:15.051Z,4.47
2018-06-22T20:53:44.615Z,4.57
2018-06-22T20:56:14.004Z,4.27
2018-06-22T20:58:43.399Z,4.07
2018-06-22T21:01:12.712Z,4.23
2018-06-22T21:03:42.078Z,4.07
2018-06-22T21:06:11.559Z,4.97
2018-06-22T21:08:40.851Z,4.03
2018-06-22T21:11:10.204Z,5.20
2018-06-22T21:13:39.471Z,4.83
2018-06-22T21:16:09.019Z,3.63
2018-06-22T21:18:38.533Z,4.00
2018-06-22T21:21:13.396Z,3.77
2018-06-22T21:23:42.794Z,4.30
2018-06-22T21:26:12.103Z,4.23
2018-06-22T21:28:46.894Z,4.17
2018-06-22T21:31:21.444Z,3.70
2018-06-22T21:33:55.968Z,4.10
2018-06-22T21:36:30.714Z,4.57
2018-06-22T21:39:02.127Z,4.27
2018-06-22T21:41:31.428Z,3.90
2018-06-22T21:44:00.932Z,3.93
2018-06-22T21:46:30.396Z,3.73
2018-06-22T21:48:59.807Z,3.80
2018-06-22T21:51:29.409Z,3.90
2018-06-22T21:53:58.862Z,3.63
2018-06-22T21:56:28.385Z,4.30
2018-06-22T21:58:57.798Z,4.10
2018-06-22T22:01:27.256Z,4.63
2018-06-22T22:03:56.612Z,4.10
2018-06-22T22:06:26.049Z,3.70
2018-06-22T22:08:55.368Z,3.90
2018-06-22T22:11:28.941Z,3.67
2018-06-22T22:13:58.338Z,3.87
2018-06-22T22:16:27.655Z,3.30
2018-06-22T22:18:57.045Z,3.97
2018-06-22T22:21:26.438Z,3.70
2018-06-22T22:23:55.841Z,3.33
2018-06-22T22:26:25.495Z,3.90
2018-06-22T22:28:54.888Z,2.90
2018-06-22T22:31:24.221Z,3.33
2018-06-22T22:33:53.677Z,2.80
2018-06-22T22:36:23.021Z,3.30
2018-06-22T22:38:52.297Z,3.57
2018-06-22T22:41:21.645Z,3.50
2018-06-22T22:43:51.082Z,3.50
2018-06-22T22:46:20.639Z,3.70
2018-06-22T22:48:50.080Z,3.50
2018-06-22T22:51:19.427Z,3.63
2018-06-22T22:53:48.848Z,3.93
2018-06-22T22:56:18.293Z,3.77
2018-06-22T22:58:47.699Z,2.97
2018-06-22T23:01:17.186Z,3.07
2018-06-22T23:03:46.610Z,3.50
2018-06-22T23:06:16.154Z,3.63
2018-06-22T23:08:45.502Z,3.40
2018-06-22T23:11:14.925Z,4.17
2018-06-22T23:13:44.382Z,3.37
2018-06-22T23:16:13.816Z,3.90
2018-06-22T23:18:43.362Z,4.43
2018-06-22T23:21:13.715Z,3.70
2018-06-22T23:23:43.068Z,4.03
2018-06-22T23:26:12.465Z,3.73
2018-06-22T23:28:41.744Z,4.00
2018-06-22T23:31:11.145Z,4.83
2018-06-22T23:33:40.614Z,4.30
2018-06-22T23:36:09.925Z,5.03
2018-06-22T23:38:39.400Z,3.73
2018-06-22T23:41:08.958Z,3.77
2018-06-22T23:43:38.331Z,3.43
2018-06-22T23:46:18.077Z,3.80
2018-06-22T23:48:48.140Z,3.20
2018-06-22T23:51:17.412Z,4.20
2018-06-22T23:53:46.790Z,4.27
2018-06-22T23:56:16.485Z,5.00
2018-06-22T23:58:45.925Z,3.83
